Portada
METAR-TAF:

METAR-TAF

Aeropuertos :

Piestany, Eslovaquia

latitud: 48-37-30N, longitud: 017-49-43E, altitud: 163 m

Observación

El informe se hizo hace 10 minutos, a las 23:30 UTC
Viento 3 kt del norte-noreste, variando entre norte y este
Temperatura 19°C
Humedad 88%
Presión 1013 hPa
Visibilidad 10 km o más

METAR: LZPP 272330Z AUTO 02003KT 350V100 9999 NCD 19/17 Q1013

Hora: 01:40 (23:40 UTC)

Pronóstico

El informe se hizo hace 6 horas y 40 minutos, a las 17:00 UTC
Pronóstico válido del 27 a las 18 UTC al 28 a las 03 UTC
Viento 7 kt del sur
Visibilidad 10 km o más
sin nubes por debajo de 1500 m y sin presencia de cumulonimbus.

TAF: LZPP 271700Z 2718/2803 17007KT CAVOK

Observaciones y pronósticos meteorológicos de más de 4000 aeropuertos (mensajes METAR y TAF).

Los puntos amarillos y rojos representan las estaciones disponibles.

Ponga el ratón en el punto deseado para ver el nombre de la estación.

Haga clic para ver las observaciones y los pronósticos meteorológicos.

Para cambiar el mapa : haga clic en los botones verdes con una cruz de color negro para hacer un zoom, en el botón verde con un guión para alejar o en las flechas verdes para mapas adyacentes.


METAR-TAF: